Time;durP1;ratioP1;P1;durP2;ratioP2;P2;SDS_P1;SDS_P2;PMS_P1;PMS_P2;Temp;Humidity;BMP_temperature;BMP_pressure;BME280_temperature;BME280_humidity;BME280_pressure;Samples;Min_cycle;Max_cycle;Signal;HPM_P1;HPM_P2
2021/08/14 00:01:50;;;;;;;3.60;1.20;;;;;21.50;102037.00;;;;5068568;28;20604;-75
2021/08/14 00:04:18;;;;;;;3.45;1.65;;;;;21.50;102027.00;;;;5068869;28;20207;-75
2021/08/14 00:06:45;;;;;;;4.00;1.70;;;;;21.50;102031.00;;;;5068394;28;20210;-75
2021/08/14 00:09:12;;;;;;;4.72;2.10;;;;;21.50;102030.00;;;;5068498;28;20202;-75
2021/08/14 00:11:39;;;;;;;2.88;1.70;;;;;21.50;102027.00;;;;5069092;28;20218;-75
2021/08/14 00:14:06;;;;;;;2.55;1.42;;;;;21.50;102024.00;;;;5069128;28;20236;-75
2021/08/14 00:16:35;;;;;;;6.43;2.22;;;;;21.50;102013.00;;;;5069028;28;20199;-75
2021/08/14 00:19:02;;;;;;;4.80;1.90;;;;;21.50;102011.00;;;;5068426;28;20191;-76
2021/08/14 00:21:31;;;;;;;4.90;1.73;;;;;21.50;102013.00;;;;5068835;28;20653;-75
2021/08/14 00:23:59;;;;;;;3.15;1.92;;;;;21.50;102014.00;;;;5067664;28;20595;-76
2021/08/14 00:26:26;;;;;;;5.10;2.28;;;;;21.50;102011.00;;;;5068822;28;20218;-75
2021/08/14 00:28:53;;;;;;;4.57;1.60;;;;;21.50;102021.00;;;;5068477;28;20194;-75
2021/08/14 00:31:20;;;;;;;4.10;2.15;;;;;21.50;102010.00;;;;5070855;28;20587;-75
2021/08/14 00:33:49;;;;;;;4.40;1.75;;;;;21.50;102016.00;;;;5072736;28;20226;-76
2021/08/14 00:36:16;;;;;;;5.75;2.10;;;;;21.50;102015.00;;;;5072090;28;20230;-75
2021/08/14 00:38:44;;;;;;;7.47;2.20;;;;;21.50;102016.00;;;;5072642;28;20203;-76
2021/08/14 00:41:11;;;;;;;2.47;1.45;;;;;21.50;102014.00;;;;5053456;28;20580;-76
2021/08/14 00:43:40;;;;;;;4.00;1.65;;;;;21.50;102020.00;;;;5052262;28;20222;-75
2021/08/14 00:46:07;;;;;;;7.05;2.05;;;;;21.50;102027.00;;;;5052194;28;20207;-76
2021/08/14 00:48:36;;;;;;;4.35;1.92;;;;;21.50;102025.00;;;;5051576;28;20203;-75
2021/08/14 00:51:04;;;;;;;5.97;1.92;;;;;21.50;102026.00;;;;5052257;28;20203;-75
2021/08/14 00:53:31;;;;;;;5.93;1.70;;;;;21.60;102017.00;;;;5051483;28;20227;-75
2021/08/14 00:56:00;;;;;;;5.78;1.90;;;;;21.60;102015.00;;;;5052213;28;20673;-75
2021/08/14 00:58:27;;;;;;;3.90;2.20;;;;;21.60;102014.00;;;;5072595;28;20198;-75
2021/08/14 01:00:56;;;;;;;3.05;1.50;;;;;21.60;102011.00;;;;5072022;28;20248;-75
2021/08/14 01:03:24;;;;;;;2.38;1.45;;;;;21.60;102006.00;;;;5072430;28;20269;-76
2021/08/14 01:05:51;;;;;;;3.85;1.95;;;;;21.60;102010.00;;;;5072312;28;20198;-75
2021/08/14 01:08:20;;;;;;;4.25;1.58;;;;;21.50;102000.00;;;;5072337;28;20712;-76
2021/08/14 01:10:47;;;;;;;5.28;1.90;;;;;21.60;101998.00;;;;5072166;28;20199;-75
2021/08/14 01:13:14;;;;;;;6.57;1.95;;;;;21.50;102002.00;;;;5071385;28;20231;-75
2021/08/14 01:15:43;;;;;;;6.47;2.17;;;;;21.50;102001.00;;;;5072533;28;20210;-75
2021/08/14 01:18:12;;;;;;;4.43;1.95;;;;;21.50;102005.00;;;;5071388;28;20199;-75
2021/08/14 01:20:40;;;;;;;7.22;2.20;;;;;21.60;102009.00;;;;5072418;28;20260;-76
2021/08/14 01:23:08;;;;;;;5.03;1.83;;;;;21.50;102011.00;;;;5071637;28;20206;-76
2021/08/14 01:25:36;;;;;;;4.07;1.77;;;;;21.50;102001.00;;;;5072025;28;20199;-75
2021/08/14 01:28:05;;;;;;;7.57;2.38;;;;;21.50;102004.00;;;;5071505;28;20207;-76
2021/08/14 01:30:32;;;;;;;3.85;1.80;;;;;21.50;102001.00;;;;5070879;28;20203;-76
2021/08/14 01:33:00;;;;;;;3.92;2.15;;;;;21.50;101999.00;;;;5071781;28;20223;-76
2021/08/14 01:35:27;;;;;;;7.50;2.67;;;;;21.50;101987.00;;;;5071426;28;20237;-75
2021/08/14 01:37:54;;;;;;;5.00;2.42;;;;;21.60;101992.00;;;;5071122;28;20222;-75
2021/08/14 01:40:22;;;;;;;4.57;2.33;;;;;21.60;101987.00;;;;5060304;28;20247;-76
2021/08/14 01:42:49;;;;;;;7.13;2.13;;;;;21.60;101982.00;;;;5050718;28;20192;-76
2021/08/14 01:45:17;;;;;;;7.43;2.20;;;;;21.60;101989.00;;;;5050470;28;20196;-75
2021/08/14 01:47:45;;;;;;;4.35;2.42;;;;;21.60;101982.00;;;;5051709;28;20686;-75
2021/08/14 01:50:12;;;;;;;5.88;2.03;;;;;21.60;101988.00;;;;5050876;28;20191;-76
2021/08/14 01:52:39;;;;;;;6.13;2.47;;;;;21.60;101988.00;;;;5050808;28;20227;-76
2021/08/14 01:55:08;;;;;;;4.60;2.20;;;;;21.60;101991.00;;;;5051315;28;20230;-76
2021/08/14 01:57:35;;;;;;;5.97;2.80;;;;;21.60;101990.00;;;;5051334;28;20688;-76
2021/08/14 02:00:02;;;;;;;6.55;2.65;;;;;21.60;101980.00;;;;5050560;28;20211;-75
2021/08/14 02:02:31;;;;;;;3.65;2.38;;;;;21.60;101979.00;;;;5051462;28;20253;-76
2021/08/14 02:04:58;;;;;;;7.72;2.33;;;;;21.60;101974.00;;;;5051928;28;20214;-75
2021/08/14 02:07:26;;;;;;;5.65;2.67;;;;;21.60;101974.00;;;;5051368;28;20204;-75
2021/08/14 02:09:53;;;;;;;6.18;2.13;;;;;21.60;101971.00;;;;5050750;28;20200;-75
2021/08/14 02:12:20;;;;;;;6.25;2.72;;;;;21.60;101970.00;;;;5051255;28;20577;-75
2021/08/14 02:14:47;;;;;;;4.78;2.70;;;;;21.60;101965.00;;;;5051277;28;20210;-75
2021/08/14 02:17:14;;;;;;;5.32;2.70;;;;;21.60;101969.00;;;;5051323;28;20214;-75
2021/08/14 02:19:43;;;;;;;6.20;2.00;;;;;21.60;101965.00;;;;5051172;28;20200;-75
2021/08/14 02:22:10;;;;;;;5.32;2.65;;;;;21.60;101961.00;;;;5051491;28;20212;-75
2021/08/14 02:24:37;;;;;;;4.75;2.30;;;;;21.60;101958.00;;;;5050486;28;20212;-75
2021/08/14 02:27:05;;;;;;;5.10;2.53;;;;;21.60;101960.00;;;;5050844;28;20203;-75
2021/08/14 02:29:33;;;;;;;7.80;2.47;;;;;21.60;101964.00;;;;5050732;28;20203;-75
2021/08/14 02:32:00;;;;;;;4.70;2.38;;;;;21.60;101965.00;;;;5050944;28;20214;-75
2021/08/14 02:34:28;;;;;;;6.35;2.33;;;;;21.60;101957.00;;;;5050862;28;20228;-75
2021/08/14 02:36:56;;;;;;;2.95;2.05;;;;;21.60;101957.00;;;;5049921;28;20823;-75
2021/08/14 02:39:24;;;;;;;6.45;3.15;;;;;21.60;101954.00;;;;5054358;28;20204;-75
2021/08/14 02:41:51;;;;;;;4.63;2.13;;;;;21.60;101953.00;;;;5070491;28;20198;-75
2021/08/14 02:44:18;;;;;;;4.32;2.35;;;;;21.60;101959.00;;;;5070120;28;20623;-75
2021/08/14 02:46:45;;;;;;;7.72;2.25;;;;;21.60;101950.00;;;;5057834;28;20203;-75
2021/08/14 02:49:12;;;;;;;8.35;2.72;;;;;21.50;101956.00;;;;5070179;28;20660;-75
2021/08/14 02:51:40;;;;;;;6.10;2.42;;;;;21.50;101952.00;;;;5070575;28;20268;-75
2021/08/14 02:54:09;;;;;;;3.20;2.05;;;;;21.50;101949.00;;;;5069439;28;20280;-75
2021/08/14 02:56:36;;;;;;;4.47;2.35;;;;;21.50;101949.00;;;;5056422;28;20665;-75
2021/08/14 02:59:03;;;;;;;6.20;2.35;;;;;21.50;101948.00;;;;5050038;28;20211;-75
2021/08/14 03:01:30;;;;;;;4.72;2.40;;;;;21.50;101941.00;;;;5050301;28;20205;-75
2021/08/14 03:03:58;;;;;;;5.50;2.38;;;;;21.40;101943.00;;;;5050132;28;20210;-75
2021/08/14 03:06:29;;;;;;;5.13;2.47;;;;;21.40;101948.00;;;;5050248;28;20203;-75
2021/08/14 03:08:56;;;;;;;8.32;2.97;;;;;21.40;101951.00;;;;5049705;28;20207;-75
2021/08/14 03:11:25;;;;;;;4.10;2.17;;;;;21.40;101951.00;;;;5050315;28;20203;-75
2021/08/14 03:13:52;;;;;;;6.15;2.85;;;;;21.40;101953.00;;;;5050230;28;20689;-75
2021/08/14 03:16:19;;;;;;;5.65;2.50;;;;;21.40;101952.00;;;;5049623;28;20203;-75
2021/08/14 03:18:46;;;;;;;4.88;2.47;;;;;21.40;101955.00;;;;5049898;28;20211;-75
2021/08/14 03:21:14;;;;;;;4.40;2.30;;;;;21.40;101951.00;;;;5049999;28;20215;-75
2021/08/14 03:23:41;;;;;;;5.50;2.33;;;;;21.40;101945.00;;;;5049623;28;20204;-75
2021/08/14 03:26:08;;;;;;;3.22;2.00;;;;;21.40;101944.00;;;;5049650;28;20564;-75
2021/08/14 03:28:36;;;;;;;4.72;2.47;;;;;21.30;101945.00;;;;5049572;28;20191;-75
2021/08/14 03:31:04;;;;;;;4.43;2.40;;;;;21.30;101944.00;;;;5050195;28;20199;-75
2021/08/14 03:33:31;;;;;;;6.93;2.88;;;;;21.30;101944.00;;;;5049334;28;20234;-75
2021/08/14 03:35:58;;;;;;;3.42;2.20;;;;;21.30;101943.00;;;;5048993;28;20234;-75
2021/08/14 03:38:25;;;;;;;5.95;3.22;;;;;21.30;101942.00;;;;5049868;28;20192;-75
2021/08/14 03:40:53;;;;;;;7.20;2.78;;;;;21.30;101942.00;;;;5049575;28;20215;-75
2021/08/14 03:43:21;;;;;;;5.97;2.30;;;;;21.30;101938.00;;;;5048973;28;20209;-75
2021/08/14 03:45:53;;;;;;;5.75;2.42;;;;;21.30;101940.00;;;;5049807;28;20208;-75
2021/08/14 03:48:20;;;;;;;5.90;2.70;;;;;21.30;101937.00;;;;5068052;28;20301;-75
2021/08/14 03:50:47;;;;;;;4.90;2.40;;;;;21.30;101945.00;;;;5069859;28;20199;-75
2021/08/14 03:53:15;;;;;;;5.18;2.95;;;;;21.30;101942.00;;;;5069202;28;20233;-75
2021/08/14 03:55:43;;;;;;;4.65;2.22;;;;;21.30;101944.00;;;;5068834;28;20289;-75
2021/08/14 03:58:10;;;;;;;5.53;2.85;;;;;21.30;101943.00;;;;5068819;28;20190;-75
2021/08/14 04:00:38;;;;;;;4.55;2.20;;;;;21.30;101943.00;;;;5069484;28;20198;-75
2021/08/14 04:03:06;;;;;;;4.78;2.70;;;;;21.30;101939.00;;;;5068474;28;20202;-75
2021/08/14 04:05:34;;;;;;;4.38;2.33;;;;;21.30;101938.00;;;;5068466;28;20206;-75
2021/08/14 04:08:01;;;;;;;5.15;2.58;;;;;21.30;101948.00;;;;5068662;28;20202;-75
2021/08/14 04:10:28;;;;;;;5.68;2.65;;;;;21.30;101944.00;;;;5068977;28;20214;-75
2021/08/14 04:12:55;;;;;;;5.18;2.65;;;;;21.20;101940.00;;;;5069043;28;20219;-75
2021/08/14 04:15:23;;;;;;;4.95;2.53;;;;;21.20;101941.00;;;;5068409;28;20715;-75
2021/08/14 04:17:50;;;;;;;4.68;2.58;;;;;21.20;101943.00;;;;5069275;28;20194;-75
2021/08/14 04:20:18;;;;;;;5.63;2.50;;;;;21.20;101939.00;;;;5068156;28;20214;-75
2021/08/14 04:22:46;;;;;;;6.72;2.70;;;;;21.20;101936.00;;;;5069363;28;20218;-75
2021/08/14 04:25:13;;;;;;;4.32;2.40;;;;;21.30;101935.00;;;;5068645;28;20199;-75
2021/08/14 04:27:40;;;;;;;5.95;2.85;;;;;21.20;101931.00;;;;5068483;28;20584;-75
2021/08/14 04:30:08;;;;;;;6.25;2.85;;;;;21.20;101932.00;;;;5068965;28;20203;-74
2021/08/14 04:32:36;;;;;;;4.75;2.53;;;;;21.20;101939.00;;;;5068838;28;20225;-75
2021/08/14 04:35:05;;;;;;;4.20;2.47;;;;;21.20;101931.00;;;;5068943;28;20235;-75
2021/08/14 04:37:34;;;;;;;4.05;2.45;;;;;21.20;101939.00;;;;5068085;28;20214;-75
2021/08/14 04:40:02;;;;;;;7.15;2.60;;;;;21.20;101937.00;;;;5051212;28;20222;-75
2021/08/14 04:42:29;;;;;;;4.20;2.90;;;;;21.20;101938.00;;;;5048606;28;20210;-75
2021/08/14 04:44:56;;;;;;;4.85;2.53;;;;;21.20;101943.00;;;;5048860;28;20210;-75
2021/08/14 04:47:24;;;;;;;5.10;2.58;;;;;21.20;101944.00;;;;5048556;28;20727;-75
2021/08/14 04:49:51;;;;;;;6.28;3.10;;;;;21.20;101939.00;;;;5048860;28;20203;-75
2021/08/14 04:52:18;;;;;;;6.07;2.83;;;;;21.20;101940.00;;;;5049006;28;20211;-75
2021/08/14 04:54:47;;;;;;;5.40;2.50;;;;;21.20;101930.00;;;;5049326;28;20231;-75
2021/08/14 04:57:14;;;;;;;3.75;2.28;;;;;21.20;101934.00;;;;5047948;28;20203;-75
2021/08/14 04:59:41;;;;;;;6.95;2.88;;;;;21.20;101931.00;;;;5048904;28;20215;-75
2021/08/14 05:02:08;;;;;;;4.38;2.63;;;;;21.20;101936.00;;;;5048377;28;20675;-75
2021/08/14 05:04:36;;;;;;;4.05;2.15;;;;;21.20;101936.00;;;;5048880;28;20203;-75
2021/08/14 05:07:04;;;;;;;4.43;2.38;;;;;21.20;101932.00;;;;5047724;28;20208;-75
2021/08/14 05:09:31;;;;;;;7.90;2.55;;;;;21.20;101932.00;;;;5048986;28;20281;-75
2021/08/14 05:11:59;;;;;;;6.38;2.75;;;;;21.20;101927.00;;;;5056148;28;20206;-75
2021/08/14 05:14:27;;;;;;;4.88;2.72;;;;;21.20;101936.00;;;;5068316;28;20534;-75
2021/08/14 05:16:54;;;;;;;5.80;2.28;;;;;21.20;101927.00;;;;5069709;28;20203;-75
2021/08/14 05:19:21;;;;;;;3.90;2.20;;;;;21.20;101925.00;;;;5072319;28;20211;-75
2021/08/14 05:21:49;;;;;;;4.25;2.40;;;;;21.20;101926.00;;;;5072394;28;20211;-75
2021/08/14 05:24:16;;;;;;;4.57;2.33;;;;;21.30;101924.00;;;;5071663;28;20207;-75
2021/08/14 05:26:43;;;;;;;4.78;2.67;;;;;21.30;101926.00;;;;5072053;28;20199;-75
2021/08/14 05:29:12;;;;;;;4.53;2.70;;;;;21.30;101930.00;;;;5070997;28;20199;-75
2021/08/14 05:31:39;;;;;;;7.88;2.80;;;;;21.40;101928.00;;;;5071851;28;20195;-75
2021/08/14 05:34:06;;;;;;;4.93;2.83;;;;;21.40;101932.00;;;;5071727;28;20485;-75
2021/08/14 05:36:34;;;;;;;5.78;2.75;;;;;21.40;101929.00;;;;5071124;28;20234;-75
2021/08/14 05:39:02;;;;;;;6.93;2.42;;;;;21.50;101931.00;;;;5054276;28;20565;-75
2021/08/14 05:41:29;;;;;;;5.47;2.53;;;;;21.50;101935.00;;;;5051717;28;20620;-75
2021/08/14 05:43:56;;;;;;;6.60;2.85;;;;;21.50;101929.00;;;;5051878;28;20198;-75
2021/08/14 05:46:25;;;;;;;6.03;3.53;;;;;21.60;101929.00;;;;5055070;28;20206;-75
2021/08/14 05:48:52;;;;;;;6.53;2.83;;;;;21.60;101924.00;;;;5067556;28;20203;-75
2021/08/14 05:51:19;;;;;;;6.28;3.13;;;;;21.70;101932.00;;;;5071457;28;20207;-75
2021/08/14 05:53:46;;;;;;;5.30;3.03;;;;;21.70;101934.00;;;;5071322;28;20218;-75
2021/08/14 05:56:14;;;;;;;7.85;3.50;;;;;21.80;101936.00;;;;5071176;28;20207;-75
2021/08/14 05:58:41;;;;;;;8.02;3.20;;;;;21.80;101930.00;;;;5071036;28;20233;-75
2021/08/14 06:01:08;;;;;;;6.05;3.08;;;;;21.80;101935.00;;;;5071187;28;20970;-75
2021/08/14 06:03:37;;;;;;;6.00;3.42;;;;;21.90;101934.00;;;;5058106;28;20579;-75
2021/08/14 06:06:05;;;;;;;4.95;3.35;;;;;21.90;101941.00;;;;5051077;28;20207;-75
2021/08/14 06:08:32;;;;;;;6.18;3.33;;;;;22.00;101938.00;;;;5051191;28;20709;-75
2021/08/14 06:10:59;;;;;;;9.15;3.05;;;;;22.00;101937.00;;;;5050870;28;20238;-75
2021/08/14 06:13:26;;;;;;;8.88;4.03;;;;;22.10;101943.00;;;;5050807;28;20688;-75
2021/08/14 06:15:54;;;;;;;9.30;4.47;;;;;22.10;101950.00;;;;5050621;28;20214;-75
2021/08/14 06:18:21;;;;;;;9.05;4.10;;;;;22.20;101955.00;;;;5050845;28;20204;-75
2021/08/14 06:20:50;;;;;;;6.75;3.50;;;;;22.20;101945.00;;;;5051222;28;20204;-75
2021/08/14 06:23:17;;;;;;;7.70;3.08;;;;;22.30;101942.00;;;;5049594;28;20212;-75
2021/08/14 06:25:44;;;;;;;5.53;3.22;;;;;22.30;101943.00;;;;5050595;28;20204;-75
2021/08/14 06:28:12;;;;;;;5.53;3.45;;;;;22.40;101939.00;;;;5048527;28;20211;-75
2021/08/14 06:30:39;;;;;;;10.38;4.15;;;;;22.40;101947.00;;;;5049660;28;20199;-75
2021/08/14 06:33:06;;;;;;;8.77;3.65;;;;;22.50;101939.00;;;;5050133;28;20199;-75
2021/08/14 06:35:33;;;;;;;11.40;4.22;;;;;22.50;101937.00;;;;5050073;28;20239;-74
2021/08/14 06:38:02;;;;;;;9.77;4.47;;;;;22.50;101942.00;;;;5049956;28;20211;-75
2021/08/14 06:40:29;;;;;;;9.75;4.32;;;;;22.60;101942.00;;;;5049537;28;20196;-75
2021/08/14 06:42:56;;;;;;;8.90;3.95;;;;;22.60;101940.00;;;;5050259;28;20234;-75
2021/08/14 06:45:24;;;;;;;8.90;4.45;;;;;22.70;101939.00;;;;5050998;28;20199;-75
2021/08/14 06:47:51;;;;;;;7.85;3.95;;;;;22.70;101942.00;;;;5050705;28;20210;-75
2021/08/14 06:50:19;;;;;;;8.73;3.80;;;;;22.80;101936.00;;;;5049927;28;20207;-75
2021/08/14 06:52:46;;;;;;;10.32;3.90;;;;;22.80;101950.00;;;;5050384;28;20761;-75
2021/08/14 06:55:15;;;;;;;7.65;4.03;;;;;22.80;101951.00;;;;5068624;28;20229;-75
2021/08/14 06:57:42;;;;;;;8.75;3.92;;;;;22.90;101950.00;;;;5069988;28;20195;-75
2021/08/14 07:00:10;;;;;;;10.23;4.47;;;;;23.00;101958.00;;;;5070387;28;20217;-75
2021/08/14 07:02:37;;;;;;;13.95;5.15;;;;;23.00;101966.00;;;;5070299;28;20563;-75
2021/08/14 07:05:06;;;;;;;8.98;4.72;;;;;23.10;101965.00;;;;5069735;28;20191;-75
2021/08/14 07:07:33;;;;;;;16.50;6.28;;;;;23.10;101964.00;;;;5069960;28;20225;-75
2021/08/14 07:10:01;;;;;;;10.20;6.63;;;;;23.10;101972.00;;;;5069745;28;20681;-75
2021/08/14 07:12:30;;;;;;;15.63;7.40;;;;;23.10;101966.00;;;;5069426;28;20199;-76
2021/08/14 07:14:59;;;;;;;11.27;6.72;;;;;23.10;101979.00;;;;5069796;28;20246;-75
2021/08/14 07:17:26;;;;;;;9.63;6.25;;;;;23.00;101970.00;;;;5069657;28;20577;-75
2021/08/14 07:19:54;;;;;;;10.82;5.18;;;;;23.00;101982.00;;;;5070384;28;20223;-75
2021/08/14 07:22:21;;;;;;;11.02;5.78;;;;;23.00;101976.00;;;;5069916;28;20214;-75
2021/08/14 07:24:48;;;;;;;11.05;5.32;;;;;23.00;101974.00;;;;5070036;28;20256;-75
2021/08/14 07:27:15;;;;;;;14.23;5.47;;;;;22.90;101970.00;;;;5067985;28;20195;-75
2021/08/14 07:29:44;;;;;;;14.98;5.70;;;;;22.90;101977.00;;;;5070197;28;20202;-75
2021/08/14 07:32:13;;;;;;;15.02;6.22;;;;;22.90;101973.00;;;;5069540;28;20199;-75
2021/08/14 07:34:41;;;;;;;15.23;6.60;;;;;22.90;101972.00;;;;5069504;28;20219;-75
2021/08/14 07:37:08;;;;;;;14.00;6.07;;;;;22.90;101973.00;;;;5059546;28;20629;-75
2021/08/14 07:39:36;;;;;;;11.52;4.75;;;;;22.90;101970.00;;;;5048546;28;20199;-75
2021/08/14 07:42:03;;;;;;;14.25;5.90;;;;;22.90;101966.00;;;;5049220;28;20208;-75
2021/08/14 07:44:30;;;;;;;18.60;6.53;;;;;22.90;101965.00;;;;5050050;28;20661;-75
2021/08/14 07:46:59;;;;;;;12.55;5.32;;;;;22.80;101971.00;;;;5049684;28;20240;-75
2021/08/14 07:49:26;;;;;;;15.50;5.30;;;;;22.80;101980.00;;;;5049239;28;20207;-75
2021/08/14 07:51:53;;;;;;;13.98;6.00;;;;;22.80;101973.00;;;;5048913;28;20631;-75
2021/08/14 07:54:20;;;;;;;12.20;5.50;;;;;22.80;101974.00;;;;5048847;28;20626;-75
2021/08/14 07:56:48;;;;;;;11.40;5.72;;;;;22.80;101976.00;;;;5049209;28;20207;-74
2021/08/14 07:59:15;;;;;;;13.85;6.43;;;;;22.80;101968.00;;;;5049158;28;20222;-74
2021/08/14 08:01:42;;;;;;;12.23;6.32;;;;;22.80;101972.00;;;;5050169;28;20204;-75
2021/08/14 08:04:10;;;;;;;10.88;4.90;;;;;22.80;101967.00;;;;5048551;28;20203;-75
2021/08/14 08:06:38;;;;;;;11.48;5.88;;;;;22.80;101959.00;;;;5048855;28;20203;-75
2021/08/14 08:09:05;;;;;;;13.77;6.82;;;;;22.90;101953.00;;;;5049097;28;20199;-75
2021/08/14 08:11:32;;;;;;;11.38;5.72;;;;;22.90;101960.00;;;;5049425;28;20208;-75
2021/08/14 08:13:59;;;;;;;16.35;6.55;;;;;22.90;101963.00;;;;5048362;28;20580;-75
2021/08/14 08:16:27;;;;;;;15.40;6.47;;;;;22.90;101960.00;;;;5049579;28;20195;-75
2021/08/14 08:18:54;;;;;;;13.00;6.32;;;;;22.90;101964.00;;;;5049393;28;20212;-75
2021/08/14 08:21:22;;;;;;;10.90;5.50;;;;;22.90;101968.00;;;;5048740;28;20662;-75
2021/08/14 08:23:50;;;;;;;14.45;5.93;;;;;23.00;101972.00;;;;5049109;28;20204;-75
2021/08/14 08:26:17;;;;;;;12.25;6.32;;;;;23.00;101969.00;;;;5048209;28;20681;-75
2021/08/14 08:28:44;;;;;;;14.38;6.43;;;;;23.00;101964.00;;;;5048466;28;20207;-75
2021/08/14 08:31:11;;;;;;;13.57;6.05;;;;;23.10;101962.00;;;;5048619;28;20200;-75
2021/08/14 08:33:38;;;;;;;13.70;6.28;;;;;23.10;101967.00;;;;5048540;28;20203;-75
2021/08/14 08:36:06;;;;;;;13.05;7.43;;;;;23.10;101974.00;;;;5048171;28;20341;-75
2021/08/14 08:38:34;;;;;;;11.65;5.60;;;;;23.10;101971.00;;;;5048538;28;20219;-75
2021/08/14 08:41:01;;;;;;;11.85;6.20;;;;;23.10;101965.00;;;;5048658;28;20199;-75
2021/08/14 08:43:29;;;;;;;13.05;6.65;;;;;23.20;101959.00;;;;5048934;28;20783;-74
2021/08/14 08:45:56;;;;;;;17.17;7.20;;;;;23.20;101964.00;;;;5050185;28;20219;-75
2021/08/14 08:48:23;;;;;;;15.77;7.28;;;;;23.20;101970.00;;;;5058784;28;20204;-75
2021/08/14 08:50:54;;;;;;;17.42;7.50;;;;;23.20;101967.00;;;;5048564;28;20562;-76
2021/08/14 08:53:21;;;;;;;11.73;6.43;;;;;23.20;101962.00;;;;5062673;28;20217;-75
2021/08/14 08:55:50;;;;;;;13.77;6.95;;;;;23.20;101960.00;;;;5072731;28;20222;-76
2021/08/14 08:58:17;;;;;;;11.00;6.20;;;;;23.20;101967.00;;;;5072391;28;20207;-75
2021/08/14 09:00:45;;;;;;;12.18;5.47;;;;;23.30;101963.00;;;;5072602;28;20202;-75
2021/08/14 09:03:14;;;;;;;16.55;6.47;;;;;23.30;101966.00;;;;5071566;28;20198;-75
2021/08/14 09:05:50;;;;;;;16.25;7.63;;;;;23.20;101962.00;;;;5072842;28;20194;-75
2021/08/14 09:08:18;;;;;;;14.05;6.90;;;;;23.30;101955.00;;;;5071831;28;20206;-75
2021/08/14 09:10:46;;;;;;;15.02;7.15;;;;;23.30;101948.00;;;;5072138;28;20203;-75
2021/08/14 09:13:17;;;;;;;12.70;7.05;;;;;23.30;101944.00;;;;5072479;28;20229;-75
2021/08/14 09:15:45;;;;;;;13.93;6.45;;;;;23.40;101953.00;;;;5072363;28;20226;-75
2021/08/14 09:18:14;;;;;;;13.57;6.88;;;;;23.40;101960.00;;;;5071661;28;20524;-75
2021/08/14 09:20:53;;;;;;;13.30;6.43;;;;;23.30;101967.00;;;;5072182;28;20202;-76
2021/08/14 09:23:21;;;;;;;11.85;6.43;;;;;23.40;101962.00;;;;5071911;28;20205;-75
2021/08/14 09:25:49;;;;;;;15.13;7.22;;;;;23.50;101960.00;;;;5071924;28;20206;-75
2021/08/14 09:28:19;;;;;;;11.68;6.07;;;;;23.50;101952.00;;;;5070951;28;20203;-75
2021/08/14 09:30:53;;;;;;;16.02;7.53;;;;;23.50;101946.00;;;;5072161;28;20221;-75
2021/08/14 09:33:23;;;;;;;14.75;6.43;;;;;23.50;101953.00;;;;5071086;28;20581;-75
2021/08/14 09:35:56;;;;;;;13.15;6.72;;;;;23.50;101947.00;;;;5064054;28;20681;-75
2021/08/14 09:38:24;;;;;;;15.48;6.80;;;;;23.60;101953.00;;;;5051794;28;20195;-75
2021/08/14 09:40:51;;;;;;;12.10;6.70;;;;;23.70;101952.00;;;;5051692;28;20203;-75
2021/08/14 09:43:35;;;;;;;13.98;6.10;;;;;23.60;101949.00;;;;5051811;28;20211;-75
2021/08/14 09:46:03;;;;;;;11.48;6.35;;;;;23.80;101947.00;;;;5051613;28;20206;-75
2021/08/14 09:48:31;;;;;;;13.45;6.85;;;;;23.90;101953.00;;;;5051319;28;20203;-75
2021/08/14 09:50:59;;;;;;;19.88;6.20;;;;;23.90;101955.00;;;;5051588;28;20200;-75
2021/08/14 09:53:28;;;;;;;13.60;6.63;;;;;24.00;101943.00;;;;5051638;28;20203;-75
2021/08/14 09:56:06;;;;;;;14.10;6.47;;;;;24.00;101949.00;;;;5051246;28;20228;-75
2021/08/14 09:58:35;;;;;;;18.42;6.30;;;;;24.20;101941.00;;;;5051268;28;20713;-75
2021/08/14 10:01:04;;;;;;;12.75;6.75;;;;;24.30;101942.00;;;;5051563;28;20282;-76
2021/08/14 10:03:32;;;;;;;11.90;6.10;;;;;24.40;101939.00;;;;5050521;28;20207;-75
2021/08/14 10:06:02;;;;;;;16.20;6.82;;;;;24.50;101948.00;;;;5050704;28;20218;-76
2021/08/14 10:08:29;;;;;;;12.93;7.30;;;;;24.60;101942.00;;;;5060803;28;20199;-75
2021/08/14 10:10:57;;;;;;;13.40;6.43;;;;;24.60;101947.00;;;;5070006;28;20206;-75
2021/08/14 10:13:25;;;;;;;10.38;6.15;;;;;24.80;101945.00;;;;5070457;28;20207;-75
2021/08/14 10:15:54;;;;;;;10.48;6.45;;;;;24.90;101940.00;;;;5070232;28;20704;-76
2021/08/14 10:18:21;;;;;;;12.88;5.55;;;;;25.00;101941.00;;;;5059162;28;20211;-76
2021/08/14 10:20:49;;;;;;;9.52;6.03;;;;;25.00;101943.00;;;;5050299;28;20199;-76
2021/08/14 10:23:22;;;;;;;15.05;7.18;;;;;25.10;101947.00;;;;5050302;28;20666;-76
2021/08/14 10:25:59;;;;;;;12.38;6.50;;;;;25.20;101946.00;;;;5050166;28;20670;-76
2021/08/14 10:28:42;;;;;;;10.90;6.63;;;;;25.20;101939.00;;;;5049961;28;20199;-75
2021/08/14 10:31:42;;;;;;;19.75;8.20;;;;;25.40;101937.00;;;;5050522;28;20544;-76
2021/08/14 10:34:28;;;;;;;14.13;7.80;;;;;25.50;101945.00;;;;5050708;28;20207;-75
2021/08/14 10:36:55;;;;;;;17.35;8.00;;;;;25.70;101941.00;;;;5049088;28;20231;-76
2021/08/14 10:39:24;;;;;;;17.17;9.18;;;;;25.80;101935.00;;;;5050351;28;20188;-76
2021/08/14 10:41:54;;;;;;;15.25;9.05;;;;;26.00;101941.00;;;;5050010;28;20199;-75
2021/08/14 10:44:45;;;;;;;13.30;8.57;;;;;25.90;101941.00;;;;5049573;28;20199;-76
2021/08/14 10:47:44;;;;;;;15.02;7.13;;;;;26.00;101939.00;;;;5049571;28;20203;-76
2021/08/14 10:50:30;;;;;;;13.23;6.97;;;;;26.10;101926.00;;;;5049499;28;20214;-75
2021/08/14 10:53:15;;;;;;;13.23;7.03;;;;;26.20;101927.00;;;;5065081;28;20249;-76
2021/08/14 10:55:44;;;;;;;12.63;6.43;;;;;26.40;101929.00;;;;5069733;28;20696;-76
2021/08/14 10:58:19;;;;;;;12.50;6.43;;;;;26.40;101935.00;;;;5068951;28;20206;-76
2021/08/14 11:00:47;;;;;;;10.63;6.93;;;;;26.60;101924.00;;;;5069747;28;20203;-75
2021/08/14 11:03:16;;;;;;;14.32;6.93;;;;;26.60;101924.00;;;;5069924;28;20635;-75
2021/08/14 11:05:46;;;;;;;13.65;7.80;;;;;26.70;101934.00;;;;5069732;28;20203;-76
2021/08/14 11:08:32;;;;;;;12.35;6.40;;;;;26.70;101919.00;;;;5068270;28;20195;-76
2021/08/14 11:11:00;;;;;;;19.40;7.97;;;;;26.90;101929.00;;;;5069376;28;20218;-76
2021/08/14 11:13:41;;;;;;;8.77;6.47;;;;;26.80;101932.00;;;;5069383;28;20293;-76
2021/08/14 11:16:09;;;;;;;13.05;5.85;;;;;27.00;101925.00;;;;5068906;28;20269;-76
2021/08/14 11:18:58;;;;;;;15.00;7.18;;;;;27.00;101927.00;;;;5069106;28;20727;-76
2021/08/14 11:21:49;;;;;;;10.95;5.32;;;;;27.00;101925.00;;;;5068640;28;20199;-76
2021/08/14 11:24:37;;;;;;;9.32;5.65;;;;;27.10;101918.00;;;;5069595;28;20646;-75
2021/08/14 11:27:21;;;;;;;8.65;5.28;;;;;27.20;101916.00;;;;5067853;28;20238;-76
2021/08/14 11:29:52;;;;;;;10.55;6.15;;;;;27.40;101908.00;;;;5068671;28;20195;-76
2021/08/14 11:32:20;;;;;;;17.80;7.10;;;;;27.50;101910.00;;;;5068653;28;20209;-77
2021/08/14 11:34:50;;;;;;;11.88;6.03;;;;;27.60;101904.00;;;;5062221;28;20203;-75
2021/08/14 11:37:18;;;;;;;9.30;5.07;;;;;27.70;101924.00;;;;5048401;28;20247;-77
2021/08/14 11:39:45;;;;;;;8.88;5.40;;;;;27.70;101913.00;;;;5048737;28;20203;-76
2021/08/14 11:42:14;;;;;;;12.70;6.47;;;;;27.70;101908.00;;;;5049202;28;20207;-75
2021/08/14 11:44:42;;;;;;;8.88;5.85;;;;;27.70;101917.00;;;;5049110;28;20203;-76
2021/08/14 11:47:12;;;;;;;10.05;6.45;;;;;27.70;101911.00;;;;5057656;28;20206;-76
2021/08/14 11:49:54;;;;;;;11.70;5.18;;;;;27.60;101912.00;;;;5050572;28;20828;-76
2021/08/14 11:52:23;;;;;;;9.73;4.60;;;;;27.80;101914.00;;;;5047775;28;20748;-76
2021/08/14 11:54:57;;;;;;;10.65;5.40;;;;;27.80;101914.00;;;;5048360;28;20207;-77
2021/08/14 11:57:29;;;;;;;9.85;5.20;;;;;27.80;101917.00;;;;5049184;28;20211;-75
2021/08/14 11:59:59;;;;;;;10.15;5.40;;;;;27.80;101915.00;;;;5056659;28;20207;-77
2021/08/14 12:02:28;;;;;;;10.85;6.07;;;;;27.80;101920.00;;;;5068962;28;20264;-76
2021/08/14 12:04:56;;;;;;;12.63;5.22;;;;;27.80;101918.00;;;;5069718;28;20668;-76
2021/08/14 12:07:24;;;;;;;15.02;5.90;;;;;27.80;101915.00;;;;5069060;28;20627;-76
2021/08/14 12:09:52;;;;;;;8.65;5.03;;;;;27.90;101910.00;;;;5068893;28;20260;-75
2021/08/14 12:12:21;;;;;;;9.45;4.75;;;;;27.90;101905.00;;;;5068934;28;20952;-76